Time;durP1;ratioP1;P1;durP2;ratioP2;P2;SDS_P1;SDS_P2;PMS_P1;PMS_P2;Temp;Humidity;BMP_temperature;BMP_pressure;BME280_temperature;BME280_humidity;BME280_pressure;Samples;Min_cycle;Max_cycle;Signal;HPM_P1;HPM_P2
2023/10/15 00:00:22;;;;;;;3.88;1.63;;;;;;;13.26;52.63;97391.78;4928441;28;20291;-79
2023/10/15 00:02:49;;;;;;;3.88;1.58;;;;;;;13.36;52.43;97395.50;4899805;28;20201;-79
2023/10/15 00:05:18;;;;;;;3.58;1.50;;;;;;;13.34;52.09;97387.91;4921599;28;20181;-79
2023/10/15 00:07:44;;;;;;;3.08;1.40;;;;;;;13.31;52.50;97391.00;4902525;28;20220;-79
2023/10/15 00:10:13;;;;;;;4.15;1.45;;;;;;;13.29;52.27;97391.25;4909536;28;20201;-79
2023/10/15 00:12:39;;;;;;;3.63;1.90;;;;;;;13.25;52.51;97395.44;4904342;28;20657;-79
2023/10/15 00:15:14;;;;;;;2.65;1.40;;;;;;;13.32;52.38;97397.84;4883824;28;20285;-78
2023/10/15 00:17:40;;;;;;;2.13;1.55;;;;;;;13.21;52.40;97383.94;4908531;28;20157;-78
2023/10/15 00:20:10;;;;;;;4.75;1.70;;;;;;;13.23;52.95;97389.69;4933146;28;20283;-78
2023/10/15 00:22:37;;;;;;;5.63;1.83;;;;;;;13.21;52.80;97394.38;4924828;28;20192;-78
2023/10/15 00:25:09;;;;;;;3.92;1.40;;;;;;;13.28;52.58;97396.75;4909582;28;20351;-78
2023/10/15 00:27:36;;;;;;;4.28;1.20;;;;;;;13.35;52.53;97401.75;4893366;28;20717;-78
2023/10/15 00:30:05;;;;;;;4.20;1.48;;;;;;;13.32;52.34;97404.91;4930751;28;20499;-78
2023/10/15 00:32:32;;;;;;;2.80;1.35;;;;;;;13.21;52.77;97397.00;4932435;28;20276;-78
2023/10/15 00:34:58;;;;;;;2.60;1.10;;;;;;;13.13;53.09;97397.47;4922420;28;20230;-77
2023/10/15 00:37:24;;;;;;;4.47;1.48;;;;;;;13.13;53.51;97399.31;4927760;28;20660;-78
2023/10/15 00:39:50;;;;;;;3.33;1.50;;;;;;;13.11;54.00;97394.34;4924382;28;20154;-78
2023/10/15 00:42:16;;;;;;;3.05;1.10;;;;;;;13.13;53.36;97389.66;4890257;28;20204;-78
2023/10/15 00:44:41;;;;;;;5.15;1.85;;;;;;;13.08;53.89;97384.38;4895415;28;20170;-79
2023/10/15 00:47:15;;;;;;;3.22;1.02;;;;;;;13.12;53.64;97398.50;4930297;28;20029;-79
2023/10/15 00:49:42;;;;;;;5.63;2.00;;;;;;;13.05;53.67;97390.13;4946308;28;20203;-79
2023/10/15 00:52:09;;;;;;;3.88;1.33;;;;;;;13.05;53.67;97398.75;4941405;28;20673;-79
2023/10/15 00:54:36;;;;;;;4.32;1.33;;;;;;;13.02;54.05;97385.41;4928447;28;20265;-79
2023/10/15 00:57:25;;;;;;;4.72;1.95;;;;;;;13.02;54.36;97393.25;4928177;28;20674;-79
2023/10/15 00:59:49;;;;;;;3.72;1.40;;;;;;;13.06;53.42;97387.25;4926044;28;20668;-80
2023/10/15 01:02:14;;;;;;;4.60;1.40;;;;;;;13.05;53.01;97384.91;4927300;28;20196;-79
2023/10/15 01:04:41;;;;;;;3.33;1.40;;;;;;;13.03;53.59;97381.75;4909111;28;20228;-79
2023/10/15 01:09:50;;;;;;;4.30;1.25;;;;;;;13.00;53.96;97385.66;4945234;28;20218;-79
2023/10/15 01:12:22;;;;;;;3.63;1.95;;;;;;;12.99;54.45;97391.94;4912777;28;20202;-79
2023/10/15 01:14:47;;;;;;;3.78;1.08;;;;;;;12.96;54.57;97387.22;4898997;28;20117;-78
2023/10/15 01:17:13;;;;;;;4.32;1.63;;;;;;;12.90;54.12;97383.78;4912552;28;20676;-78
2023/10/15 01:19:38;;;;;;;5.35;1.30;;;;;;;12.91;54.34;97381.97;4930130;28;20138;-78
2023/10/15 01:22:10;;;;;;;4.78;1.13;;;;;;;12.92;54.99;97380.94;4927290;28;20099;-78
2023/10/15 01:24:37;;;;;;;4.40;1.30;;;;;;;12.98;54.71;97381.72;4919736;28;20335;-78
2023/10/15 01:27:10;;;;;;;3.22;1.02;;;;;;;13.00;54.92;97383.03;4895343;28;20200;-78
2023/10/15 01:29:40;;;;;;;2.78;1.10;;;;;;;12.99;54.82;97383.28;4941345;28;20694;-78
2023/10/15 01:32:19;;;;;;;3.00;1.20;;;;;;;12.87;54.47;97373.06;4926043;28;20367;-78
2023/10/15 01:34:45;;;;;;;3.72;1.30;;;;;;;12.99;53.75;97380.66;4927275;28;20351;-78
2023/10/15 01:39:51;;;;;;;2.80;0.98;;;;;;;13.01;53.72;97383.84;4921160;28;20272;-78
2023/10/15 01:44:55;;;;;;;3.92;1.42;;;;;;;12.98;54.18;97389.56;4938797;28;20254;-78
2023/10/15 01:47:28;;;;;;;3.45;1.33;;;;;;;13.05;53.42;97382.28;4910788;28;20209;-78
2023/10/15 01:49:56;;;;;;;4.47;1.30;;;;;;;13.16;52.94;97389.13;4912442;28;20502;-78
2023/10/15 01:52:32;;;;;;;3.78;1.30;;;;;;;13.04;53.19;97391.97;4916339;28;20629;-78
2023/10/15 01:55:03;;;;;;;4.40;1.38;;;;;;;12.94;53.89;97384.06;4891947;28;20193;-79
2023/10/15 01:57:29;;;;;;;3.42;1.23;;;;;;;13.00;53.61;97382.25;4913869;28;20192;-79
2023/10/15 02:00:05;;;;;;;3.30;0.95;;;;;;;13.01;54.43;97394.28;4910777;28;20290;-79
2023/10/15 02:02:30;;;;;;;2.03;1.20;;;;;;;12.99;54.44;97396.34;4927432;28;20258;-79
2023/10/15 02:04:57;;;;;;;4.28;1.30;;;;;;;13.01;54.05;97396.91;4911299;28;20270;-78
2023/10/15 02:07:22;;;;;;;5.03;1.55;;;;;;;12.98;54.25;97400.03;4911621;28;20602;-79
2023/10/15 02:09:48;;;;;;;3.78;1.45;;;;;;;13.02;54.90;97398.47;4927620;28;20265;-79
2023/10/15 02:12:18;;;;;;;6.47;1.52;;;;;;;13.10;54.30;97398.75;4920067;28;20624;-79
2023/10/15 02:14:44;;;;;;;4.07;1.50;;;;;;;13.10;53.88;97393.53;4911980;28;20591;-79
2023/10/15 02:17:18;;;;;;;4.63;1.90;;;;;;;13.16;53.95;97391.75;4937587;28;20624;-79
2023/10/15 02:19:44;;;;;;;2.92;1.67;;;;;;;13.11;54.17;97395.13;4944612;28;20230;-79
2023/10/15 02:22:14;;;;;;;3.25;1.13;;;;;;;13.15;54.46;97392.00;4910664;28;20257;-79
2023/10/15 02:24:47;;;;;;;2.88;1.40;;;;;;;13.15;54.10;97386.78;4892390;28;20209;-79
2023/10/15 02:27:17;;;;;;;8.30;1.80;;;;;;;13.16;54.70;97389.13;4909274;28;20249;-78
2023/10/15 02:29:47;;;;;;;3.60;1.40;;;;;;;13.12;54.42;97385.44;4903706;28;20281;-78
2023/10/15 02:32:21;;;;;;;2.15;1.20;;;;;;;13.09;54.21;97378.91;4922783;28;20099;-78
2023/10/15 02:34:50;;;;;;;2.50;1.40;;;;;;;13.10;54.88;97383.06;4919504;28;20181;-77
2023/10/15 02:37:23;;;;;;;3.95;1.40;;;;;;;13.17;54.16;97385.47;4910721;28;20216;-78
2023/10/15 02:39:51;;;;;;;2.67;1.30;;;;;;;13.07;54.44;97374.97;4938576;28;20185;-78
2023/10/15 02:42:20;;;;;;;4.25;1.33;;;;;;;13.02;55.04;97370.53;4910890;28;20107;-78
2023/10/15 02:44:50;;;;;;;2.03;1.33;;;;;;;13.04;54.76;97373.66;4907334;28;20201;-78
2023/10/15 02:47:19;;;;;;;5.20;2.33;;;;;;;13.08;54.14;97373.94;4906465;28;20243;-78
2023/10/15 02:52:20;;;;;;;3.03;1.10;;;;;;;12.91;54.77;97372.28;4910078;28;20333;-78
2023/10/15 02:54:46;;;;;;;2.78;1.10;;;;;;;12.86;54.88;97371.47;4910306;28;20719;-78
2023/10/15 02:57:15;;;;;;;4.57;1.45;;;;;;;12.81;55.06;97382.69;4909647;28;20200;-78
2023/10/15 02:59:50;;;;;;;7.05;1.63;;;;;;;12.76;54.69;97371.41;4906947;28;20502;-77
2023/10/15 03:02:17;;;;;;;4.68;1.42;;;;;;;12.74;55.47;97374.28;4925944;28;20296;-78
2023/10/15 03:04:49;;;;;;;2.92;1.50;;;;;;;12.73;55.47;97373.50;4926424;28;20647;-78
2023/10/15 03:07:29;;;;;;;4.03;1.38;;;;;;;12.82;54.92;97378.25;4910252;28;20598;-79
2023/10/15 03:09:59;;;;;;;4.00;1.70;;;;;;;12.82;55.20;97376.44;4942968;28;20178;-79
2023/10/15 03:12:25;;;;;;;3.35;1.40;;;;;;;12.65;55.66;97375.81;4896685;28;20300;-79
2023/10/15 03:14:51;;;;;;;4.70;1.83;;;;;;;12.68;54.71;97375.28;4928299;28;20245;-79
2023/10/15 03:17:29;;;;;;;2.13;1.17;;;;;;;12.61;54.87;97385.19;4926254;28;20275;-79
2023/10/15 03:19:55;;;;;;;4.90;1.50;;;;;;;12.53;54.41;97381.22;4895784;28;20208;-79
2023/10/15 03:22:24;;;;;;;4.57;1.55;;;;;;;12.43;54.52;97383.75;4918921;28;20263;-78
2023/10/15 03:24:53;;;;;;;5.55;1.58;;;;;;;12.31;55.14;97387.31;4914240;28;20316;-79
2023/10/15 03:27:22;;;;;;;3.08;1.23;;;;;;;12.18;54.42;97385.13;4910568;28;20606;-79
2023/10/15 03:29:47;;;;;;;4.63;1.33;;;;;;;12.15;55.09;97389.03;4911451;28;20346;-79
2023/10/15 03:32:16;;;;;;;3.35;1.35;;;;;;;12.13;54.55;97392.91;4910028;28;20407;-79
2023/10/15 03:34:47;;;;;;;2.78;1.02;;;;;;;12.03;55.06;97385.81;4926488;28;20261;-79
2023/10/15 03:37:16;;;;;;;3.35;1.10;;;;;;;12.02;55.11;97393.88;4891931;28;20193;-79
2023/10/15 03:42:09;;;;;;;3.42;1.30;;;;;;;11.86;54.94;97385.09;4925417;28;20192;-79
2023/10/15 03:44:47;;;;;;;3.70;1.02;;;;;;;11.87;55.12;97386.66;4880739;28;20326;-78
2023/10/15 03:47:14;;;;;;;2.80;1.33;;;;;;;11.71;55.57;97377.91;4892259;28;20291;-78
2023/10/15 03:49:39;;;;;;;3.35;1.30;;;;;;;11.66;56.32;97386.47;4914670;28;20302;-79
2023/10/15 03:52:09;;;;;;;2.78;1.15;;;;;;;11.59;55.71;97386.66;4909912;28;20685;-79
2023/10/15 03:54:37;;;;;;;3.22;0.98;;;;;;;11.58;55.91;97382.50;4941839;28;20627;-78
2023/10/15 03:57:02;;;;;;;4.38;1.42;;;;;;;11.63;56.65;97386.97;4909737;28;20682;-78
2023/10/15 03:59:28;;;;;;;5.32;1.45;;;;;;;11.60;56.77;97382.22;4906079;28;20166;-79
2023/10/15 04:01:56;;;;;;;2.50;1.38;;;;;;;11.64;56.80;97382.53;4894679;28;20853;-79
2023/10/15 04:04:22;;;;;;;3.67;1.63;;;;;;;11.72;56.77;97382.91;4926123;28;20767;-79
2023/10/15 04:07:10;;;;;;;3.60;1.58;;;;;;;11.76;56.75;97386.56;4906232;28;20366;-78
2023/10/15 04:09:35;;;;;;;3.15;1.95;;;;;;;11.63;56.87;97386.97;4918261;28;20240;-79
2023/10/15 04:12:06;;;;;;;4.63;1.45;;;;;;;11.65;56.47;97395.31;4908963;28;20313;-78
2023/10/15 04:14:32;;;;;;;3.47;1.23;;;;;;;11.66;56.56;97396.91;4927921;28;20216;-79
2023/10/15 04:16:58;;;;;;;4.47;1.20;;;;;;;11.71;56.87;97399.56;4894340;28;20212;-79
2023/10/15 04:19:29;;;;;;;5.70;1.70;;;;;;;11.69;56.87;97393.81;4891126;28;20334;-78
2023/10/15 04:21:59;;;;;;;3.58;1.45;;;;;;;11.69;57.02;97391.19;4924558;28;20232;-79
2023/10/15 04:24:39;;;;;;;4.88;1.45;;;;;;;11.72;56.96;97388.09;4918585;28;20076;-78
2023/10/15 04:27:18;;;;;;;3.90;1.55;;;;;;;11.66;56.60;97385.69;4923213;28;20274;-79
2023/10/15 04:29:51;;;;;;;3.13;1.20;;;;;;;11.66;56.75;97396.91;4908362;28;20139;-79
2023/10/15 04:33:07;;;;;;;5.32;1.67;;;;;;;11.57;56.99;97388.72;4912750;28;20282;-79
2023/10/15 04:35:08;;;;;;;4.38;1.63;;;;;;;11.52;56.88;97382.69;4911247;28;20072;-79
2023/10/15 04:37:36;;;;;;;2.50;1.45;;;;;;;11.48;56.98;97385.00;4922216;28;20740;-79
2023/10/15 04:40:04;;;;;;;3.45;1.40;;;;;;;11.57;56.27;97383.53;4924060;28;20617;-79
2023/10/15 04:42:36;;;;;;;3.40;1.65;;;;;;;11.59;56.33;97386.66;4929851;28;20292;-79
2023/10/15 04:45:03;;;;;;;2.90;1.58;;;;;;;11.60;56.19;97388.25;4915864;28;20169;-79
2023/10/15 04:47:37;;;;;;;4.18;1.73;;;;;;;11.54;55.73;97378.78;4925958;28;20209;-79
2023/10/15 04:50:14;;;;;;;6.25;1.52;;;;;;;11.52;55.88;97390.50;4895666;28;20358;-79
2023/10/15 04:52:41;;;;;;;2.63;1.60;;;;;;;11.51;55.67;97396.75;4941861;28;20361;-79
2023/10/15 04:55:07;;;;;;;2.65;1.20;;;;;;;11.41;55.74;97385.19;4921236;28;20204;-79
2023/10/15 04:57:33;;;;;;;4.78;1.77;;;;;;;11.38;56.05;97385.66;4912994;28;20211;-79
2023/10/15 04:59:59;;;;;;;2.72;1.40;;;;;;;11.37;55.50;97398.94;4927460;28;20217;-79
2023/10/15 05:02:24;;;;;;;3.85;1.50;;;;;;;11.34;55.88;97405.41;4896298;28;20166;-79
2023/10/15 05:04:49;;;;;;;3.63;1.77;;;;;;;11.25;55.67;97401.66;4905427;28;20123;-79
2023/10/15 05:07:15;;;;;;;3.88;1.60;;;;;;;11.23;55.92;97403.72;4942286;28;20185;-79
2023/10/15 05:09:44;;;;;;;5.20;2.00;;;;;;;11.24;56.08;97413.91;4923002;28;20373;-79
2023/10/15 05:12:11;;;;;;;3.90;1.48;;;;;;;11.20;55.83;97412.81;4893702;28;20705;-79
2023/10/15 05:14:37;;;;;;;3.30;1.35;;;;;;;11.23;55.91;97424.59;4908817;28;20150;-79
2023/10/15 05:17:02;;;;;;;5.78;1.88;;;;;;;11.14;55.82;97421.63;4911962;28;20196;-79
2023/10/15 05:19:28;;;;;;;3.78;1.27;;;;;;;11.10;55.74;97419.72;4917863;28;20634;-79
2023/10/15 05:21:53;;;;;;;2.72;1.48;;;;;;;11.04;55.39;97426.69;4916274;28;20367;-79
2023/10/15 05:24:18;;;;;;;4.70;1.40;;;;;;;11.07;55.47;97431.44;4894203;28;20341;-79
2023/10/15 05:26:50;;;;;;;2.90;1.58;;;;;;;11.13;55.85;97427.84;4928398;28;20261;-78
2023/10/15 05:29:15;;;;;;;4.47;1.50;;;;;;;11.04;55.84;97434.50;4895155;28;20585;-78
2023/10/15 05:31:44;;;;;;;3.28;1.60;;;;;;;11.01;56.14;97434.97;4911397;28;20207;-78
2023/10/15 05:34:10;;;;;;;3.17;1.50;;;;;;;10.92;56.59;97433.81;4892701;28;20242;-78
2023/10/15 05:36:36;;;;;;;4.65;1.30;;;;;;;10.95;56.40;97434.13;4909879;28;20341;-77
2023/10/15 05:39:03;;;;;;;3.22;1.75;;;;;;;10.94;56.48;97439.59;4927678;28;20375;-78
2023/10/15 05:41:31;;;;;;;2.50;1.77;;;;;;;10.89;56.38;97440.28;4902315;28;20213;-78
2023/10/15 05:43:57;;;;;;;2.58;1.30;;;;;;;10.80;56.54;97431.31;4955553;28;20674;-78
2023/10/15 05:46:22;;;;;;;3.42;1.60;;;;;;;10.81;56.64;97438.91;4903279;28;20193;-78
2023/10/15 05:48:48;;;;;;;3.72;1.35;;;;;;;10.83;56.94;97443.84;4914792;28;20240;-78
2023/10/15 05:51:13;;;;;;;5.60;1.95;;;;;;;10.81;57.32;97433.69;4911753;28;20212;-78
2023/10/15 05:53:39;;;;;;;2.88;1.50;;;;;;;10.81;57.16;97441.50;4911208;28;20349;-77
2023/10/15 05:56:05;;;;;;;4.03;1.40;;;;;;;10.85;57.50;97453.00;4927372;28;20627;-79
2023/10/15 05:58:31;;;;;;;3.13;1.30;;;;;;;10.85;57.14;97449.63;4889612;28;20252;-79
2023/10/15 06:00:57;;;;;;;3.30;2.05;;;;;;;10.89;56.83;97455.91;4927518;28;20331;-78
2023/10/15 06:03:23;;;;;;;3.15;1.23;;;;;;;10.88;56.95;97456.94;4884295;28;20206;-79
2023/10/15 06:05:49;;;;;;;3.50;1.60;;;;;;;10.84;56.76;97454.03;4904092;28;20213;-79
2023/10/15 06:08:14;;;;;;;3.67;1.80;;;;;;;10.79;56.42;97455.78;4893273;28;20174;-79
2023/10/15 06:10:39;;;;;;;3.53;1.52;;;;;;;10.84;56.32;97461.06;4909654;28;20189;-78
2023/10/15 06:13:05;;;;;;;3.63;1.63;;;;;;;10.77;55.78;97468.25;4904234;28;20676;-79
2023/10/15 06:15:30;;;;;;;2.95;1.13;;;;;;;10.79;56.40;97477.38;4911258;28;20361;-79
2023/10/15 06:17:56;;;;;;;3.65;1.42;;;;;;;10.78;55.52;97469.81;4927121;28;20231;-79
2023/10/15 06:20:21;;;;;;;6.93;2.13;;;;;;;10.78;55.40;97475.03;4934975;28;20774;-78
2023/10/15 06:22:47;;;;;;;3.35;2.00;;;;;;;10.76;55.93;97471.88;4927950;28;20298;-79
2023/10/15 06:25:16;;;;;;;1.85;1.20;;;;;;;10.76;56.05;97469.25;4933077;28;20414;-79
2023/10/15 06:27:42;;;;;;;2.80;1.30;;;;;;;10.81;56.31;97470.16;4928044;28;20208;-78
2023/10/15 06:30:14;;;;;;;2.63;1.60;;;;;;;10.78;57.04;97464.59;4926880;28;20201;-79
2023/10/15 06:32:41;;;;;;;5.32;1.30;;;;;;;10.89;57.58;97470.78;4909520;28;20213;-79
2023/10/15 06:35:07;;;;;;;3.60;1.20;;;;;;;10.98;57.23;97472.72;4956933;28;20309;-79
2023/10/15 06:37:33;;;;;;;3.22;1.38;;;;;;;11.02;57.09;97473.84;4912338;28;20165;-78
2023/10/15 06:39:58;;;;;;;2.33;1.45;;;;;;;11.04;57.12;97487.41;4910671;28;20233;-78
2023/10/15 06:42:24;;;;;;;3.65;1.40;;;;;;;11.14;56.90;97478.13;4928778;28;20113;-78
2023/10/15 06:44:49;;;;;;;4.22;1.45;;;;;;;11.21;56.92;97489.97;4894481;28;20261;-78
2023/10/15 06:47:15;;;;;;;5.60;1.40;;;;;;;11.32;57.16;97487.50;4909867;28;20126;-78
2023/10/15 06:49:40;;;;;;;6.43;1.95;;;;;;;11.43;56.81;97479.59;4929231;28;20745;-78
2023/10/15 06:52:05;;;;;;;2.50;0.95;;;;;;;11.52;56.69;97479.94;4900173;28;20229;-78
2023/10/15 06:54:31;;;;;;;5.60;2.20;;;;;;;11.61;56.39;97486.31;4897906;28;20408;-78
2023/10/15 06:56:57;;;;;;;3.72;2.00;;;;;;;11.69;56.32;97492.16;4927256;28;20271;-78
2023/10/15 06:59:22;;;;;;;3.78;2.10;;;;;;;11.72;56.38;97500.28;4909562;28;20270;-78
2023/10/15 07:01:47;;;;;;;2.78;1.63;;;;;;;11.74;56.58;97497.44;4915353;28;20215;-77
2023/10/15 07:04:13;;;;;;;4.80;1.67;;;;;;;11.85;56.14;97493.88;4911194;28;20259;-78
2023/10/15 07:06:39;;;;;;;5.28;2.10;;;;;;;11.96;55.75;97503.44;4904984;28;20205;-79
2023/10/15 07:09:05;;;;;;;8.20;1.67;;;;;;;12.04;55.84;97504.81;4941384;28;20033;-79
2023/10/15 07:11:31;;;;;;;4.35;1.77;;;;;;;12.08;56.10;97498.09;4901290;28;20250;-79
2023/10/15 07:13:56;;;;;;;4.78;1.85;;;;;;;12.13;55.57;97505.16;4918688;28;20524;-79
2023/10/15 07:16:22;;;;;;;4.65;1.70;;;;;;;12.15;56.05;97508.34;4902399;28;20174;-79
2023/10/15 07:18:48;;;;;;;5.57;2.35;;;;;;;12.17;56.02;97516.69;4922461;28;20666;-79
2023/10/15 07:21:13;;;;;;;4.00;1.40;;;;;;;12.35;55.78;97512.94;4910129;28;20726;-79
2023/10/15 07:23:38;;;;;;;5.25;1.50;;;;;;;12.48;55.30;97517.78;4910574;28;20754;-79
2023/10/15 07:26:04;;;;;;;4.00;2.17;;;;;;;12.70;54.67;97519.53;4909132;28;20076;-79
2023/10/15 07:28:29;;;;;;;5.55;2.33;;;;;;;12.71;54.90;97508.03;4905632;28;20110;-79
2023/10/15 07:30:55;;;;;;;2.88;1.70;;;;;;;12.76;54.57;97502.84;4926066;28;20727;-79
2023/10/15 07:33:21;;;;;;;5.30;2.85;;;;;;;12.90;54.52;97505.81;4901341;28;20208;-79
2023/10/15 07:35:48;;;;;;;4.78;2.33;;;;;;;12.99;53.94;97516.59;4909868;28;20214;-79
2023/10/15 07:38:14;;;;;;;4.03;2.30;;;;;;;13.03;53.90;97512.44;4912095;28;20154;-78
2023/10/15 07:40:40;;;;;;;5.53;2.33;;;;;;;13.31;53.90;97519.16;4904454;28;20196;-79
2023/10/15 07:43:08;;;;;;;3.78;2.13;;;;;;;13.38;53.51;97521.56;4926164;28;20212;-78
2023/10/15 07:45:34;;;;;;;5.38;2.20;;;;;;;13.42;53.52;97530.50;4909954;28;20169;-79
2023/10/15 07:48:01;;;;;;;3.88;1.85;;;;;;;13.45;52.96;97528.16;4918826;28;20564;-77
2023/10/15 07:50:31;;;;;;;5.15;2.28;;;;;;;13.51;52.62;97523.72;4905804;28;20174;-78
2023/10/15 07:52:58;;;;;;;5.32;1.83;;;;;;;13.57;52.82;97541.03;4925342;28;20199;-78
2023/10/15 07:55:24;;;;;;;5.85;2.67;;;;;;;13.63;53.13;97532.16;4900910;28;20322;-78
2023/10/15 07:57:50;;;;;;;5.63;2.42;;;;;;;13.79;52.81;97537.47;4925826;28;20368;-78
2023/10/15 08:00:16;;;;;;;4.72;2.63;;;;;;;13.87;51.97;97531.75;4917384;28;20195;-78
2023/10/15 08:02:43;;;;;;;4.15;2.03;;;;;;;13.90;51.86;97541.69;4894000;28;20212;-78
2023/10/15 08:05:08;;;;;;;5.68;1.90;;;;;;;13.73;52.55;97528.03;4926094;28;20669;-78
2023/10/15 08:07:36;;;;;;;4.63;1.88;;;;;;;13.67;52.63;97532.44;4912411;28;20200;-79
2023/10/15 08:10:03;;;;;;;5.60;1.77;;;;;;;13.76;51.94;97523.06;4941098;28;20076;-79
2023/10/15 08:12:28;;;;;;;3.80;1.67;;;;;;;13.81;52.65;97537.97;4893848;28;20252;-79
2023/10/15 08:14:55;;;;;;;3.35;1.33;;;;;;;13.71;52.50;97540.56;4957855;28;20289;-79
2023/10/15 08:17:23;;;;;;;4.45;1.45;;;;;;;14.00;51.23;97536.50;4925810;28;20990;-78
2023/10/15 08:19:48;;;;;;;4.38;1.98;;;;;;;14.13;51.48;97542.28;4925995;28;20204;-78
2023/10/15 08:22:13;;;;;;;5.20;1.67;;;;;;;14.19;51.68;97539.44;4927489;28;20483;-78
2023/10/15 08:24:39;;;;;;;3.38;1.30;;;;;;;14.30;50.79;97545.47;4905517;28;20387;-78
2023/10/15 08:27:07;;;;;;;4.07;1.08;;;;;;;14.26;49.88;97549.66;4924823;28;20201;-78
2023/10/15 08:29:33;;;;;;;2.85;1.00;;;;;;;14.49;50.30;97537.13;4906926;28;20103;-78
2023/10/15 08:31:58;;;;;;;5.15;0.85;;;;;;;14.43;49.02;97536.34;4940263;28;20276;-77
2023/10/15 08:34:24;;;;;;;3.50;1.35;;;;;;;14.51;48.36;97550.75;4898450;28;20393;-78
2023/10/15 08:36:50;;;;;;;3.17;1.20;;;;;;;14.41;48.88;97543.66;4920208;28;20197;-78
2023/10/15 08:39:15;;;;;;;3.72;0.82;;;;;;;14.43;48.60;97549.44;4893402;28;20756;-79
2023/10/15 08:41:43;;;;;;;2.30;0.70;;;;;;;14.43;48.48;97552.06;4899906;28;20197;-78
2023/10/15 08:44:09;;;;;;;2.90;1.00;;;;;;;14.44;47.86;97561.47;4891465;28;20312;-78
2023/10/15 08:46:39;;;;;;;3.33;0.93;;;;;;;14.42;48.21;97566.19;4924281;28;20676;-78
2023/10/15 08:49:08;;;;;;;4.13;1.00;;;;;;;14.48;47.73;97557.31;4923982;28;20208;-77
2023/10/15 08:51:34;;;;;;;2.72;0.55;;;;;;;14.40;48.41;97571.69;4908112;28;20631;-78
2023/10/15 08:54:02;;;;;;;2.83;1.05;;;;;;;14.54;46.73;97563.34;4924964;28;20211;-78
2023/10/15 08:56:29;;;;;;;3.55;0.80;;;;;;;14.53;46.17;97565.19;4903111;28;20162;-78
2023/10/15 08:58:57;;;;;;;3.38;0.80;;;;;;;14.46;46.77;97559.38;4906832;28;20172;-78
2023/10/15 09:01:23;;;;;;;2.00;0.70;;;;;;;14.34;46.39;97569.31;4906913;28;20634;-78
2023/10/15 09:03:49;;;;;;;1.83;0.60;;;;;;;14.22;46.30;97565.13;4923018;28;20181;-78
2023/10/15 09:06:15;;;;;;;2.92;0.80;;;;;;;14.16;46.64;97562.72;4927562;28;20382;-78
2023/10/15 09:08:43;;;;;;;4.72;1.00;;;;;;;14.01;47.00;97568.69;4905502;28;20210;-78
2023/10/15 09:11:10;;;;;;;4.97;1.30;;;;;;;14.04;47.23;97558.50;4893698;28;20103;-78
2023/10/15 09:13:36;;;;;;;2.67;0.77;;;;;;;14.08;46.90;97568.47;4916266;28;20716;-78
2023/10/15 09:16:03;;;;;;;2.15;0.75;;;;;;;14.13;47.26;97555.38;4911838;28;20266;-78
2023/10/15 09:18:28;;;;;;;3.15;0.68;;;;;;;14.00;46.78;97565.31;4908986;28;20188;-79
2023/10/15 09:20:58;;;;;;;3.25;1.10;;;;;;;14.08;47.17;97569.25;4900745;28;20315;-80
2023/10/15 09:23:23;;;;;;;2.15;0.93;;;;;;;14.04;47.21;97568.97;4911414;28;20181;-79
2023/10/15 09:25:58;;;;;;;4.93;1.05;;;;;;;14.24;46.50;97559.63;4912420;28;20196;-79
2023/10/15 09:28:27;;;;;;;2.40;1.08;;;;;;;14.17;46.93;97554.63;4912567;28;20267;-79
2023/10/15 09:31:01;;;;;;;3.30;1.15;;;;;;;14.50;46.06;97562.28;4911840;28;20239;-79
2023/10/15 09:33:30;;;;;;;1.88;0.80;;;;;;;14.50;46.71;97549.19;4902796;28;20353;-78
2023/10/15 09:36:02;;;;;;;3.58;0.98;;;;;;;14.52;45.50;97563.59;4912525;28;20186;-79
2023/10/15 09:38:28;;;;;;;2.33;1.00;;;;;;;14.61;45.66;97561.28;4912477;28;20170;-78
2023/10/15 09:40:56;;;;;;;3.22;0.90;;;;;;;14.77;44.58;97549.75;4936256;28;20467;-79
2023/10/15 09:43:28;;;;;;;4.20;1.40;;;;;;;14.96;45.00;97562.34;4916882;28;20163;-79
2023/10/15 09:45:54;;;;;;;2.45;0.90;;;;;;;14.89;44.01;97567.84;4905580;28;20310;-80
2023/10/15 09:48:29;;;;;;;3.00;0.60;;;;;;;15.12;42.24;97569.16;4911182;28;20592;-79
2023/10/15 09:50:59;;;;;;;2.33;0.70;;;;;;;14.90;43.37;97564.16;4914661;28;20111;-80
2023/10/15 09:53:27;;;;;;;1.90;0.50;;;;;;;15.02;42.69;97566.53;4911570;28;20139;-79
2023/10/15 09:55:53;;;;;;;2.58;0.47;;;;;;;14.87;42.30;97577.00;4896428;28;20650;-79
2023/10/15 09:58:18;;;;;;;2.65;0.50;;;;;;;14.79;41.59;97568.63;4927856;28;20280;-79
2023/10/15 10:00:59;;;;;;;1.73;0.85;;;;;;;15.00;41.64;97571.25;4895035;28;20226;-80
2023/10/15 10:03:49;;;;;;;1.08;0.50;;;;;;;14.94;42.05;97577.53;4907966;28;20205;-78
2023/10/15 10:06:48;;;;;;;1.27;0.50;;;;;;;14.85;42.00;97576.50;4914904;28;20291;-80
2023/10/15 10:09:43;;;;;;;3.55;0.65;;;;;;;15.11;42.20;97582.50;4919087;28;20783;-79
2023/10/15 10:12:25;;;;;;;;;;;;;;;15.21;41.60;97582.50;4918594;28;20717;-80
2023/10/15 10:15:10;;;;;;;3.70;0.60;;;;;;;15.69;40.31;97579.53;4936079;28;20136;-79
2023/10/15 10:17:36;;;;;;;;;;;;;;;15.49;39.58;97577.75;4946533;28;20504;-79
2023/10/15 10:20:10;;;;;;;1.92;0.40;;;;;;;15.31;39.91;97573.84;4954370;28;20080;-79
2023/10/15 10:22:36;;;;;;;1.75;0.40;;;;;;;15.12;40.12;97578.84;4892866;28;20204;-79
2023/10/15 10:25:03;;;;;;;1.38;0.40;;;;;;;15.04;40.59;97580.16;4894272;28;20213;-79
2023/10/15 10:27:40;;;;;;;1.45;0.43;;;;;;;15.34;40.49;97589.06;4909478;28;20170;-79
2023/10/15 10:30:28;;;;;;;2.42;0.40;;;;;;;15.66;40.89;97586.13;4920580;28;20147;-79
2023/10/15 10:32:58;;;;;;;1.83;0.45;;;;;;;15.63;40.18;97585.88;4926645;28;20877;-79
2023/10/15 10:35:26;;;;;;;1.20;0.40;;;;;;;15.77;40.03;97589.53;4916267;28;20602;-78
2023/10/15 10:38:05;;;;;;;1.27;0.40;;;;;;;15.73;38.68;97583.22;4927119;28;20280;-79
2023/10/15 10:40:47;;;;;;;0.73;0.40;;;;;;;15.64;38.70;97555.94;4903632;28;20333;-77
2023/10/15 10:43:21;;;;;;;2.35;0.50;;;;;;;15.59;39.76;97585.59;4924064;28;20345;-78
2023/10/15 10:45:49;;;;;;;1.98;0.47;;;;;;;15.58;38.75;97583.25;4920609;28;20535;-77
2023/10/15 10:48:22;;;;;;;0.93;0.30;;;;;;;16.10;38.35;97574.94;4914971;28;20296;-78
2023/10/15 10:50:48;;;;;;;1.42;0.50;;;;;;;16.56;39.04;97566.03;4926178;28;20276;-78
2023/10/15 10:53:14;;;;;;;2.17;0.95;;;;;;;16.94;38.47;97566.28;4906079;28;20581;-78
2023/10/15 10:55:39;;;;;;;2.55;0.45;;;;;;;17.35;35.98;97568.56;4917016;28;20299;-79
2023/10/15 10:58:23;;;;;;;1.05;0.40;;;;;;;17.82;36.01;97562.81;4918935;28;20257;-78
2023/10/15 11:00:48;;;;;;;0.85;0.40;;;;;;;17.73;35.81;97562.63;4912183;28;20165;-77
2023/10/15 11:03:14;;;;;;;0.40;0.40;;;;;;;18.01;35.43;97563.66;4937997;28;20275;-79
2023/10/15 11:05:40;;;;;;;0.50;0.50;;;;;;;18.19;35.16;97570.00;4884536;28;20710;-79
2023/10/15 11:08:16;;;;;;;1.50;0.50;;;;;;;18.43;34.14;97575.22;4893807;28;20067;-78
2023/10/15 11:10:47;;;;;;;0.70;0.50;;;;;;;18.76;33.50;97567.34;4909540;28;20279;-78
2023/10/15 11:13:14;;;;;;;1.98;0.43;;;;;;;19.02;33.70;97573.06;4905354;28;20205;-79
2023/10/15 11:15:39;;;;;;;3.00;0.40;;;;;;;19.77;32.21;97573.84;4910825;28;20018;-78
2023/10/15 11:18:08;;;;;;;1.50;0.40;;;;;;;19.18;32.50;97576.22;4928579;28;20056;-79
2023/10/15 11:20:35;;;;;;;1.70;0.30;;;;;;;18.59;32.31;97575.78;4918327;28;20850;-78
2023/10/15 11:23:06;;;;;;;1.55;0.70;;;;;;;18.32;31.79;97574.59;4901159;28;20671;-78
2023/10/15 11:25:34;;;;;;;0.85;0.47;;;;;;;17.76;32.65;97575.25;4930865;28;20507;-78
2023/10/15 11:28:07;;;;;;;0.55;0.38;;;;;;;18.02;32.46;97577.63;4934719;28;20045;-78
2023/10/15 11:30:33;;;;;;;1.05;0.38;;;;;;;18.94;32.14;97572.94;4932718;28;20116;-78
2023/10/15 11:33:07;;;;;;;0.30;0.30;;;;;;;19.58;31.53;97570.50;4927707;28;20387;-78
2023/10/15 11:35:33;;;;;;;0.63;0.40;;;;;;;20.09;28.58;97568.75;4905570;28;20199;-79
2023/10/15 11:37:58;;;;;;;1.17;0.50;;;;;;;20.29;29.21;97565.66;4890600;28;20128;-80
2023/10/15 11:40:25;;;;;;;1.35;0.40;;;;;;;20.59;27.76;97566.81;4909228;28;20627;-80
2023/10/15 11:42:51;;;;;;;0.47;0.32;;;;;;;20.98;27.87;97569.94;4924764;28;20235;-80
2023/10/15 11:45:30;;;;;;;2.00;0.45;;;;;;;20.81;26.59;97569.81;4905819;28;20762;-79
2023/10/15 11:47:56;;;;;;;2.08;0.50;;;;;;;20.47;27.90;97568.44;4930061;28;20037;-80
2023/10/15 11:50:26;;;;;;;0.80;0.40;;;;;;;20.90;26.78;97565.34;4913578;28;20042;-80
2023/10/15 11:52:55;;;;;;;2.13;0.30;;;;;;;21.09;27.26;97560.63;4918121;28;20438;-79